Time;durP1;ratioP1;P1;durP2;ratioP2;P2;SDS_P1;SDS_P2;PMS_P1;PMS_P2;Temp;Humidity;BMP_temperature;BMP_pressure;BME280_temperature;BME280_humidity;BME280_pressure;Samples;Min_cycle;Max_cycle;Signal;HPM_P1;HPM_P2
2023/02/15 00:00:01;;;;;;;47.05;24.00;;;1.20;99.90;;;;;;2603412;54;20752;31
2023/02/15 00:02:40;;;;;;;47.95;24.90;;;1.20;99.90;;;;;;2621919;46;20890;31
2023/02/15 00:05:15;;;;;;;50.75;25.67;;;1.10;99.90;;;;;;2603287;54;20027;31
2023/02/15 00:07:52;;;;;;;51.85;25.30;;;1.10;99.90;;;;;;2603208;54;20828;31
2023/02/15 00:10:28;;;;;;;47.23;25.27;;;1.00;99.90;;;;;;2603276;54;20598;31
2023/02/15 00:13:03;;;;;;;42.05;23.35;;;1.10;99.90;;;;;;2603390;54;20791;31
2023/02/15 00:15:38;;;;;;;48.03;25.00;;;1.10;99.90;;;;;;2621831;46;20249;31
2023/02/15 00:18:12;;;;;;;48.93;24.37;;;1.10;99.90;;;;;;2603186;54;20033;31
2023/02/15 00:20:46;;;;;;;47.90;26.07;;;1.10;99.90;;;;;;2603310;54;21103;31
2023/02/15 00:23:23;;;;;;;48.72;26.92;;;1.10;99.90;;;;;;2603378;54;20925;31
2023/02/15 00:26:07;;;;;;;72.72;40.85;;;1.00;99.90;;;;;;2621840;46;20033;31
2023/02/15 00:28:41;;;;;;;49.90;26.50;;;1.00;99.90;;;;;;2621786;46;20030;31
2023/02/15 00:31:15;;;;;;;54.25;29.00;;;1.10;99.90;;;;;;2621884;46;20771;31
2023/02/15 00:33:50;;;;;;;58.58;35.78;;;1.00;99.90;;;;;;2621755;46;20771;31
2023/02/15 00:36:25;;;;;;;58.15;33.85;;;1.00;99.90;;;;;;2603352;54;20049;31
2023/02/15 00:39:02;;;;;;;51.40;28.15;;;1.00;99.90;;;;;;2602902;54;21085;31
2023/02/15 00:41:36;;;;;;;59.17;34.15;;;0.90;99.90;;;;;;2602714;54;20847;31
2023/02/15 00:44:10;;;;;;;55.90;29.70;;;0.80;99.90;;;;;;2603355;54;20030;31
2023/02/15 00:46:47;;;;;;;73.60;43.85;;;0.80;99.90;;;;;;2603257;54;20107;31
2023/02/15 00:49:20;;;;;;;58.15;33.35;;;0.80;99.90;;;;;;2603180;54;20032;31
2023/02/15 00:51:54;;;;;;;67.18;35.08;;;0.70;99.90;;;;;;2621348;47;20087;31
2023/02/15 00:54:31;;;;;;;61.03;35.83;;;0.70;99.90;;;;;;2603239;54;20026;31
2023/02/15 00:57:05;;;;;;;53.72;31.65;;;0.70;99.90;;;;;;2603051;54;20037;31
2023/02/15 00:59:39;;;;;;;60.27;32.93;;;0.70;99.90;;;;;;2603304;54;21398;31
2023/02/15 01:02:13;;;;;;;61.67;34.65;;;0.60;99.90;;;;;;2603012;54;20235;31
2023/02/15 01:04:47;;;;;;;67.40;34.53;;;0.60;99.90;;;;;;2603217;54;20108;31
2023/02/15 01:07:22;;;;;;;67.78;42.67;;;0.60;99.90;;;;;;2621650;47;20029;31
2023/02/15 01:09:59;;;;;;;79.55;47.80;;;0.60;99.90;;;;;;2603112;54;20802;31
2023/02/15 01:12:33;;;;;;;107.43;68.13;;;0.50;99.90;;;;;;2603224;54;20030;31
2023/02/15 01:15:08;;;;;;;74.15;40.05;;;0.60;99.90;;;;;;2621416;47;20029;31
2023/02/15 01:17:45;;;;;;;66.28;35.80;;;0.50;99.90;;;;;;2603089;54;20867;31
2023/02/15 01:20:19;;;;;;;;;;;0.50;99.90;;;;;;2603338;54;21352;31
2023/02/15 01:22:54;;;;;;;82.53;42.42;;;0.50;99.90;;;;;;2621372;47;21568;31
2023/02/15 01:25:31;;;;;;;64.07;33.42;;;0.40;99.90;;;;;;2621488;47;20026;31
2023/02/15 01:28:06;;;;;;;57.97;32.60;;;0.30;99.90;;;;;;2621582;47;20026;31
2023/02/15 01:30:41;;;;;;;67.85;35.38;;;0.40;99.90;;;;;;2602936;54;21256;31
2023/02/15 01:33:17;;;;;;;63.13;32.93;;;0.40;99.90;;;;;;2602795;54;20038;31
2023/02/15 01:35:55;;;;;;;64.90;32.20;;;0.40;99.90;;;;;;2603006;54;20093;31
2023/02/15 01:43:55;;;;;;;68.60;32.05;;;0.20;99.90;;;;;;2621279;47;20134;31
2023/02/15 01:46:33;;;;;;;70.87;34.57;;;0.20;99.90;;;;;;2602817;54;20874;31
2023/02/15 01:49:11;;;;;;;69.97;34.63;;;0.20;99.90;;;;;;2719768;39;21848;31
2023/02/15 01:51:46;;;;;;;69.70;33.25;;;0.20;99.90;;;;;;2621134;47;20838;31
2023/02/15 01:54:24;;;;;;;62.20;30.45;;;0.10;99.90;;;;;;2603506;54;20867;31
2023/02/15 01:57:03;;;;;;;59.90;31.10;;;0.10;99.90;;;;;;2719811;39;21457;31
2023/02/15 01:59:37;;;;;;;77.70;43.08;;;0.10;99.90;;;;;;2603871;54;20030;31
2023/02/15 02:02:12;;;;;;;79.90;39.22;;;0.10;99.90;;;;;;2603657;54;20033;31
2023/02/15 02:04:48;;;;;;;80.30;41.65;;;0.10;99.90;;;;;;2603752;54;20033;31
2023/02/15 02:07:26;;;;;;;78.72;40.53;;;0.10;99.90;;;;;;2603559;54;20033;31
2023/02/15 02:10:00;;;;;;;84.35;46.10;;;0.10;99.90;;;;;;2783504;31;20030;31
2023/02/15 02:12:38;;;;;;;69.30;35.37;;;0.00;99.90;;;;;;2603717;54;21358;31
2023/02/15 02:15:14;;;;;;;66.95;34.20;;;0.00;99.90;;;;;;2603687;54;20255;31
2023/02/15 02:18:02;;;;;;;64.18;34.05;;;0.00;99.90;;;;;;2603905;54;20030;31
2023/02/15 02:20:53;;;;;;;72.03;36.83;;;0.00;99.90;;;;;;2622436;46;20034;31
2023/02/15 02:23:30;;;;;;;70.00;34.65;;;-0.10;99.90;;;;;;2622192;46;20076;31
2023/02/15 02:26:25;;;;;;;64.18;35.28;;;-0.10;99.90;;;;;;2603416;54;20053;31
2023/02/15 02:29:29;;;;;;;79.30;40.93;;;-0.10;99.90;;;;;;2603698;54;20034;31
2023/02/15 02:32:03;;;;;;;76.95;38.90;;;-0.20;99.90;;;;;;2603589;54;20245;31
2023/02/15 02:34:41;;;;;;;82.28;42.33;;;-0.20;99.90;;;;;;2603813;54;20026;31
2023/02/15 02:37:19;;;;;;;81.87;40.70;;;-0.30;99.90;;;;;;2603533;54;20847;31
2023/02/15 02:39:49;;;;;;;73.07;34.88;;;-0.30;99.90;;;;;;2603338;54;20305;31
2023/02/15 02:42:26;;;;;;;72.28;36.35;;;-0.30;99.90;;;;;;2702244;39;20489;31
2023/02/15 02:45:02;;;;;;;88.57;44.95;;;-0.40;99.90;;;;;;2603775;54;20032;31
2023/02/15 02:47:38;;;;;;;78.65;40.20;;;-0.40;99.90;;;;;;2621682;46;20963;31
2023/02/15 02:50:16;;;;;;;70.43;35.92;;;-0.40;99.90;;;;;;2622163;46;20050;31
2023/02/15 02:52:51;;;;;;;81.15;40.30;;;-0.40;99.90;;;;;;2603499;54;20887;31
2023/02/15 02:55:27;;;;;;;77.30;40.65;;;-0.40;99.90;;;;;;2603449;54;20026;31
2023/02/15 02:58:06;;;;;;;98.13;46.50;;;-0.40;99.90;;;;;;2603557;54;20186;31
2023/02/15 03:00:42;;;;;;;104.85;48.17;;;-0.50;99.90;;;;;;2622034;46;20030;31
2023/02/15 03:03:21;;;;;;;70.15;34.40;;;-0.40;99.90;;;;;;2603392;54;20045;31
2023/02/15 03:06:01;;;;;;;72.15;35.10;;;-0.40;99.90;;;;;;2620848;46;20026;31
2023/02/15 03:08:41;;;;;;;70.43;35.43;;;-0.50;99.90;;;;;;2620961;46;20118;31
2023/02/15 03:11:17;;;;;;;60.20;31.70;;;-0.40;99.90;;;;;;2621617;46;20634;31
2023/02/15 03:14:10;;;;;;;76.00;35.53;;;-0.50;99.90;;;;;;2603099;54;20022;31
2023/02/15 03:35:11;;;;;;;61.05;32.25;;;-0.50;99.90;;;;;;2601381;54;20010;31
2023/02/15 07:02:39;;;;;;;136.65;62.25;;;-0.70;99.90;;;;;;2603090;54;20076;31
2023/02/15 07:05:15;;;;;;;142.43;69.13;;;-0.70;99.90;;;;;;2620873;46;20108;31
2023/02/15 07:07:50;;;;;;;122.60;63.83;;;-0.50;99.90;;;;;;2621428;46;20023;31
2023/02/15 07:10:25;;;;;;;87.47;50.60;;;-0.10;99.90;;;;;;2603588;54;20033;31
2023/02/15 07:12:57;;;;;;;77.03;46.47;;;0.40;99.90;;;;;;2603406;54;20227;31
2023/02/15 07:15:34;;;;;;;115.33;61.67;;;0.80;99.90;;;;;;2622263;46;20598;31
2023/02/15 07:18:11;;;;;;;238.40;112.15;;;1.20;99.90;;;;;;2603633;54;20145;31
2023/02/15 07:20:45;;;;;;;226.90;108.38;;;1.70;99.90;;;;;;2603578;54;20038;31
2023/02/15 07:23:19;;;;;;;202.93;100.13;;;2.10;99.90;;;;;;2603351;54;20027;31
2023/02/15 07:25:59;;;;;;;122.97;67.20;;;2.50;99.90;;;;;;2603584;54;20034;31
2023/02/15 07:28:35;;;;;;;73.65;44.50;;;2.90;99.90;;;;;;2603392;54;20242;31
2023/02/15 07:31:09;;;;;;;67.53;40.50;;;3.40;99.90;;;;;;2622000;46;20574;31
2023/02/15 07:33:46;;;;;;;71.00;42.13;;;3.90;99.90;;;;;;2622105;46;20041;31
2023/02/15 07:36:20;;;;;;;69.27;39.10;;;4.40;99.90;;;;;;2603289;54;20901;31
2023/02/15 07:38:54;;;;;;;53.67;32.15;;;4.80;99.90;;;;;;2603323;54;20112;31
2023/02/15 07:41:28;;;;;;;50.67;30.85;;;5.20;99.90;;;;;;2603516;54;20022;31
2023/02/15 07:44:02;;;;;;;58.15;34.80;;;5.50;99.90;;;;;;2603289;54;20033;31
2023/02/15 07:46:36;;;;;;;47.47;30.47;;;5.80;99.90;;;;;;2603373;54;20104;31
2023/02/15 07:49:12;;;;;;;49.60;30.00;;;6.00;99.90;;;;;;2603477;54;19935;31
2023/02/15 07:51:46;;;;;;;58.95;38.85;;;6.30;99.90;;;;;;2603050;54;20826;31
2023/02/15 07:54:20;;;;;;;63.28;43.10;;;6.50;99.90;;;;;;2603299;54;20856;31
2023/02/15 07:56:54;;;;;;;62.75;37.55;;;6.50;99.90;;;;;;2603185;54;20023;31
2023/02/15 07:59:28;;;;;;;54.28;33.00;;;6.50;99.90;;;;;;2603191;54;20891;31
2023/02/15 08:02:02;;;;;;;65.30;34.00;;;6.40;99.90;;;;;;2603131;54;20034;31
2023/02/15 08:04:39;;;;;;;68.75;36.75;;;6.40;99.90;;;;;;2603176;54;20058;31
2023/02/15 08:07:13;;;;;;;50.58;30.35;;;6.30;99.90;;;;;;2603170;54;20104;31
2023/02/15 08:09:48;;;;;;;52.10;29.95;;;6.10;99.90;;;;;;2603196;54;20843;31
2023/02/15 08:12:22;;;;;;;45.80;26.85;;;6.00;99.90;;;;;;2621618;46;20029;31
2023/02/15 08:14:57;;;;;;;45.25;28.05;;;5.90;99.90;;;;;;2603251;54;20807;31
2023/02/15 08:17:30;;;;;;;52.80;32.87;;;5.80;99.90;;;;;;2621638;46;20952;31
2023/02/15 08:20:08;;;;;;;49.92;31.60;;;5.90;99.90;;;;;;2603447;54;20309;31
2023/02/15 08:22:43;;;;;;;49.95;32.05;;;5.90;99.90;;;;;;2603273;54;20026;31
2023/02/15 08:25:17;;;;;;;47.47;30.20;;;5.90;99.90;;;;;;2602285;54;20034;31
2023/02/15 08:27:54;;;;;;;40.90;26.50;;;5.80;99.90;;;;;;2603324;54;20027;31
2023/02/15 08:30:28;;;;;;;43.85;27.92;;;5.80;99.90;;;;;;2603108;54;20026;31
2023/02/15 08:33:03;;;;;;;43.75;26.23;;;5.80;99.90;;;;;;2621603;46;20022;31
2023/02/15 08:35:40;;;;;;;44.90;26.40;;;6.10;99.90;;;;;;2603283;54;20837;31
2023/02/15 08:38:15;;;;;;;42.88;26.52;;;6.10;99.90;;;;;;2603212;54;20030;31
2023/02/15 08:40:49;;;;;;;40.90;24.85;;;6.20;99.90;;;;;;2701608;39;21638;31
2023/02/15 08:43:23;;;;;;;41.40;25.80;;;6.30;99.90;;;;;;2619257;46;20018;31
2023/02/15 08:45:57;;;;;;;39.15;25.40;;;6.30;99.90;;;;;;2603042;54;20026;31
2023/02/15 08:48:32;;;;;;;38.35;22.45;;;6.20;99.90;;;;;;2602976;54;20055;31
2023/02/15 08:51:13;;;;;;;35.40;23.88;;;6.10;99.90;;;;;;2603236;54;20900;31
2023/02/15 08:53:48;;;;;;;40.30;24.60;;;6.20;99.90;;;;;;2603143;54;20037;31
2023/02/15 08:56:24;;;;;;;34.90;22.47;;;6.40;99.90;;;;;;2603070;54;20026;31
2023/02/15 08:58:58;;;;;;;37.60;23.10;;;6.40;99.90;;;;;;2603219;54;20278;31
2023/02/15 09:01:34;;;;;;;39.07;23.90;;;6.30;99.90;;;;;;2602975;54;20030;31
2023/02/15 09:04:10;;;;;;;44.27;25.30;;;6.30;99.90;;;;;;2621854;46;20893;31
2023/02/15 09:06:47;;;;;;;;;;;6.30;99.90;;;;;;2604098;54;19960;31
2023/02/15 09:09:21;;;;;;;38.35;21.77;;;6.30;99.90;;;;;;2603831;54;19934;31
2023/02/15 09:11:55;;;;;;;38.45;23.33;;;6.20;99.90;;;;;;2622217;46;20170;31
2023/02/15 09:14:32;;;;;;;39.08;23.27;;;6.30;99.90;;;;;;2603908;54;20030;31
2023/02/15 09:17:06;;;;;;;42.20;22.98;;;6.30;99.90;;;;;;2603731;54;20027;31
2023/02/15 09:19:40;;;;;;;35.07;21.30;;;6.30;99.90;;;;;;2603747;54;20038;31
2023/02/15 09:22:17;;;;;;;34.53;22.00;;;6.60;99.90;;;;;;2603626;54;20112;31
2023/02/15 09:24:51;;;;;;;35.03;22.88;;;6.60;99.90;;;;;;2603477;54;20034;31
2023/02/15 09:27:25;;;;;;;35.30;21.80;;;6.70;99.90;;;;;;2603812;54;20030;31
2023/02/15 09:29:59;;;;;;;38.80;24.75;;;6.80;99.90;;;;;;2603920;54;20027;31
2023/02/15 09:32:33;;;;;;;39.83;23.57;;;6.90;99.90;;;;;;2603628;54;20038;31
2023/02/15 09:35:08;;;;;;;40.15;23.35;;;7.20;99.90;;;;;;2603793;54;20034;31
2023/02/15 09:37:45;;;;;;;37.30;24.20;;;7.30;99.90;;;;;;2603777;54;20038;31
2023/02/15 09:40:19;;;;;;;37.08;22.73;;;7.50;99.90;;;;;;2603700;54;20742;31
2023/02/15 09:43:12;;;;;;;38.10;24.75;;;7.70;99.90;;;;;;2603773;54;20815;31
2023/02/15 09:46:10;;;;;;;40.45;23.85;;;7.80;99.90;;;;;;2702533;39;21016;31
2023/02/15 09:48:45;;;;;;;39.38;23.63;;;7.80;99.90;;;;;;2603610;54;20033;31
2023/02/15 09:51:37;;;;;;;39.15;25.15;;;7.80;99.90;;;;;;2621976;46;20906;31
2023/02/15 09:54:27;;;;;;;38.90;24.35;;;8.00;99.90;;;;;;2603622;54;20027;31
2023/02/15 09:57:02;;;;;;;47.30;23.60;;;8.10;99.90;;;;;;2603730;54;20928;31
2023/02/15 09:59:39;;;;;;;37.47;22.83;;;8.10;99.90;;;;;;2603878;54;20033;31
2023/02/15 10:02:22;;;;;;;36.17;22.50;;;8.00;99.90;;;;;;2603863;54;20234;31
2023/02/15 10:04:57;;;;;;;35.38;22.55;;;7.90;99.90;;;;;;2603777;54;20048;31
2023/02/15 10:07:40;;;;;;;40.17;23.38;;;7.90;99.90;;;;;;2603661;54;20908;31
2023/02/15 10:10:21;;;;;;;35.97;23.35;;;7.90;99.90;;;;;;2621944;46;20957;31
2023/02/15 10:13:01;;;;;;;34.97;21.60;;;8.00;99.90;;;;;;2603807;54;20034;31
2023/02/15 10:15:51;;;;;;;35.28;21.95;;;8.00;99.90;;;;;;2603533;54;20833;31
2023/02/15 10:18:45;;;;;;;36.28;22.90;;;8.00;99.90;;;;;;2603839;54;20030;31
2023/02/15 10:21:24;;;;;;;36.78;24.63;;;8.20;99.90;;;;;;2603626;54;20045;31
2023/02/15 10:24:17;;;;;;;36.28;23.15;;;8.30;99.90;;;;;;2622350;46;20031;31
2023/02/15 10:26:54;;;;;;;37.55;23.65;;;8.40;99.90;;;;;;2607952;46;20023;31
2023/02/15 10:29:32;;;;;;;40.50;25.00;;;8.50;99.90;;;;;;2603453;54;20031;31
2023/02/15 10:32:12;;;;;;;36.63;22.58;;;8.40;99.90;;;;;;2603631;54;20158;31
2023/02/15 10:34:50;;;;;;;38.67;23.70;;;8.40;99.90;;;;;;2622146;46;20030;31
2023/02/15 10:37:42;;;;;;;32.00;22.17;;;8.60;99.90;;;;;;2603642;54;19934;31
2023/02/15 10:40:21;;;;;;;34.70;22.42;;;8.70;99.90;;;;;;2622309;46;20775;31
2023/02/15 10:43:17;;;;;;;39.37;23.23;;;8.70;99.90;;;;;;2603674;54;20030;31
2023/02/15 10:45:56;;;;;;;37.10;23.00;;;8.70;99.90;;;;;;2603473;54;20026;31
2023/02/15 10:48:53;;;;;;;36.45;21.77;;;8.60;99.90;;;;;;2603591;54;25045;31
2023/02/15 10:51:31;;;;;;;35.90;22.33;;;8.50;99.90;;;;;;2622430;46;20027;31
2023/02/15 10:54:12;;;;;;;37.42;21.67;;;8.50;99.90;;;;;;2603716;54;20027;31
2023/02/15 10:56:49;;;;;;;33.47;22.20;;;8.50;99.90;;;;;;2603508;54;19946;31
2023/02/15 10:59:53;;;;;;;35.25;22.30;;;8.40;99.90;;;;;;2603700;54;19934;31
2023/02/15 11:02:27;;;;;;;47.05;25.42;;;8.40;99.90;;;;;;2603845;54;20026;31
2023/02/15 11:05:05;;;;;;;35.88;23.40;;;8.50;99.90;;;;;;2603429;54;20934;31
2023/02/15 11:07:41;;;;;;;29.92;20.23;;;8.50;99.90;;;;;;2603528;54;20899;31
2023/02/15 11:10:18;;;;;;;;;;;8.40;99.90;;;;;;2603864;54;20031;31
2023/02/15 11:12:54;;;;;;;33.37;21.70;;;8.30;99.90;;;;;;2603321;54;20003;31
2023/02/15 11:15:34;;;;;;;34.80;22.75;;;8.30;99.90;;;;;;2603540;54;20139;31
2023/02/15 11:18:12;;;;;;;32.45;21.63;;;8.20;99.90;;;;;;2621739;46;20992;31
2023/02/15 11:20:50;;;;;;;34.43;21.83;;;8.20;99.90;;;;;;2621968;46;20027;31
2023/02/15 11:23:24;;;;;;;35.63;21.87;;;8.20;99.90;;;;;;2603729;54;20037;31
2023/02/15 11:26:00;;;;;;;32.22;20.40;;;8.10;99.90;;;;;;2603119;54;20056;31
2023/02/15 11:28:37;;;;;;;34.30;22.00;;;8.00;99.90;;;;;;2603530;54;20029;31
2023/02/15 11:31:18;;;;;;;37.72;21.48;;;8.00;99.90;;;;;;2603444;54;20022;31
2023/02/15 11:33:54;;;;;;;32.67;20.60;;;8.00;99.90;;;;;;2603683;54;20022;31
2023/02/15 11:36:30;;;;;;;30.55;20.08;;;7.90;99.90;;;;;;2621736;46;20019;31
2023/02/15 11:39:05;;;;;;;;;;;7.90;99.90;;;;;;2603761;54;20822;31
2023/02/15 11:41:41;;;;;;;34.28;20.13;;;7.90;99.90;;;;;;2603506;54;19946;31
2023/02/15 11:44:18;;;;;;;37.53;21.67;;;7.90;99.90;;;;;;2622197;46;20946;31
2023/02/15 11:46:55;;;;;;;31.63;21.02;;;7.70;99.90;;;;;;2603332;54;20908;31
2023/02/15 11:49:31;;;;;;;32.85;21.33;;;7.70;99.90;;;;;;2621894;46;20031;31
2023/02/15 11:52:04;;;;;;;34.60;21.65;;;7.70;99.90;;;;;;2702411;39;21052;31
2023/02/15 11:54:40;;;;;;;38.50;21.40;;;7.70;99.90;;;;;;2702107;39;20465;31
2023/02/15 11:57:17;;;;;;;37.73;24.00;;;7.80;99.90;;;;;;2622123;46;21076;31
2023/02/15 11:59:54;;;;;;;38.80;22.42;;;7.80;99.90;;;;;;2622170;46;20048;31
2023/02/15 12:02:30;;;;;;;36.28;22.00;;;7.90;99.90;;;;;;2603605;54;20033;31
2023/02/15 12:05:04;;;;;;;36.10;22.25;;;7.80;99.90;;;;;;2603206;54;20896;31
2023/02/15 12:07:39;;;;;;;38.00;24.20;;;7.80;99.90;;;;;;2603314;54;20031;31
2023/02/15 12:10:20;;;;;;;37.67;22.80;;;7.70;99.90;;;;;;2603474;54;20064;31
2023/02/15 12:13:11;;;;;;;43.30;24.20;;;7.70;99.90;;;;;;2603242;54;21188;31
2023/02/15 12:15:47;;;;;;;36.70;22.77;;;7.60;99.90;;;;;;2603371;54;20030;31
2023/02/15 12:18:37;;;;;;;36.22;24.13;;;7.60;99.90;;;;;;2603260;54;20109;31
2023/02/15 12:21:13;;;;;;;36.83;23.63;;;7.50;99.90;;;;;;2621912;46;20030;31
2023/02/15 12:23:49;;;;;;;;;;;7.60;99.90;;;;;;2603448;54;20030;31
2023/02/15 12:26:27;;;;;;;35.67;23.58;;;7.60;99.90;;;;;;2603217;54;19935;31
2023/02/15 12:29:02;;;;;;;37.87;24.10;;;7.60;99.90;;;;;;2603430;54;20100;31
2023/02/15 12:31:39;;;;;;;40.38;23.65;;;7.60;99.90;;;;;;2621970;46;20755;31
2023/02/15 12:34:22;;;;;;;36.30;24.33;;;7.50;99.90;;;;;;2603189;54;20026;31
2023/02/15 12:36:57;;;;;;;37.08;23.38;;;7.50;99.90;;;;;;2603361;54;20090;31
2023/02/15 12:39:32;;;;;;;39.85;24.45;;;7.60;99.90;;;;;;2603290;54;20852;31
2023/02/15 12:42:08;;;;;;;38.33;23.52;;;7.50;99.90;;;;;;2603351;54;20834;31
2023/02/15 12:44:41;;;;;;;37.35;23.25;;;7.50;99.90;;;;;;2603263;54;20039;31
2023/02/15 12:47:23;;;;;;;34.28;22.15;;;7.40;99.90;;;;;;2603112;54;20089;31
2023/02/15 12:50:01;;;;;;;38.58;24.63;;;7.50;99.90;;;;;;2603068;54;20026;31
2023/02/15 12:52:37;;;;;;;33.67;23.00;;;7.50;99.90;;;;;;2603318;54;20035;31
2023/02/15 12:55:22;;;;;;;37.70;24.05;;;7.50;99.90;;;;;;2603274;54;20121;31
2023/02/15 12:58:09;;;;;;;41.53;24.92;;;7.50;99.90;;;;;;2603437;54;20085;31
2023/02/15 13:00:43;;;;;;;40.28;23.45;;;7.40;99.90;;;;;;2603082;54;20029;31
2023/02/15 13:03:19;;;;;;;39.05;23.42;;;7.40;99.90;;;;;;2603220;54;20029;31
2023/02/15 13:05:55;;;;;;;38.67;24.30;;;7.40;99.90;;;;;;2603282;54;20034;31
2023/02/15 13:08:34;;;;;;;38.00;23.27;;;7.50;99.90;;;;;;2603261;54;20057;31
2023/02/15 13:11:10;;;;;;;33.53;21.75;;;7.50;99.90;;;;;;2602967;54;20077;31
2023/02/15 13:13:53;;;;;;;37.65;22.63;;;7.50;99.90;;;;;;2621913;47;20872;31
2023/02/15 13:16:31;;;;;;;36.15;23.70;;;7.50;99.90;;;;;;2603206;54;20027;31
2023/02/15 13:19:07;;;;;;;34.20;21.80;;;7.50;99.90;;;;;;2603219;54;20038;31
2023/02/15 13:21:42;;;;;;;40.45;23.90;;;7.50;99.90;;;;;;2621308;47;20851;31
2023/02/15 13:24:21;;;;;;;35.40;22.63;;;7.50;99.90;;;;;;2603133;54;20041;31
2023/02/15 13:26:57;;;;;;;37.47;22.95;;;7.50;99.90;;;;;;2621360;47;20104;31
2023/02/15 13:29:49;;;;;;;35.17;21.98;;;7.50;99.90;;;;;;2621391;47;20027;31
2023/02/15 13:32:31;;;;;;;41.28;24.13;;;7.50;99.90;;;;;;2621373;47;20022;31
2023/02/15 13:35:07;;;;;;;38.90;23.25;;;7.50;99.90;;;;;;2603089;54;20030;31
2023/02/15 13:38:01;;;;;;;41.15;25.00;;;7.50;99.90;;;;;;2602999;54;20231;31
2023/02/15 13:43:18;;;;;;;38.63;25.13;;;7.60;99.90;;;;;;2602968;54;19942;31
2023/02/15 13:46:03;;;;;;;37.67;24.35;;;7.60;99.90;;;;;;2603222;54;20045;31
2023/02/15 13:48:44;;;;;;;38.72;24.27;;;7.70;99.90;;;;;;2720152;39;20482;31
2023/02/15 13:51:25;;;;;;;36.72;23.83;;;7.70;99.90;;;;;;2603834;54;20034;31
2023/02/15 13:54:09;;;;;;;39.77;25.47;;;7.70;99.90;;;;;;2603777;54;20136;31
2023/02/15 13:56:50;;;;;;;39.87;24.80;;;7.80;99.90;;;;;;2603807;54;20798;31
2023/02/15 13:59:46;;;;;;;40.60;24.85;;;7.70;99.90;;;;;;2603776;54;20081;31
2023/02/15 14:02:39;;;;;;;39.53;24.70;;;7.70;99.90;;;;;;2621988;46;20022;31
2023/02/15 14:05:31;;;;;;;37.67;23.98;;;7.80;99.90;;;;;;2603958;54;20026;31
2023/02/15 14:08:11;;;;;;;38.75;24.10;;;7.80;99.90;;;;;;2773387;31;20556;31
2023/02/15 14:10:48;;;;;;;46.53;26.30;;;7.90;99.90;;;;;;2702255;39;20528;31
2023/02/15 14:13:50;;;;;;;39.17;23.92;;;7.90;99.90;;;;;;2603806;54;20022;31
2023/02/15 14:16:33;;;;;;;36.30;22.77;;;7.90;99.90;;;;;;2603785;54;20801;31
2023/02/15 14:19:07;;;;;;;40.30;24.33;;;7.90;99.90;;;;;;2622612;46;20053;31
2023/02/15 14:21:45;;;;;;;38.65;24.25;;;7.90;99.90;;;;;;2702385;39;21034;31
2023/02/15 14:24:26;;;;;;;34.42;22.65;;;7.90;99.90;;;;;;2621831;46;20023;31
2023/02/15 14:27:06;;;;;;;40.13;24.58;;;7.90;99.90;;;;;;2609162;46;20116;31
2023/02/15 14:29:48;;;;;;;34.58;21.67;;;7.90;99.90;;;;;;2603599;54;20038;31
2023/02/15 14:32:29;;;;;;;37.33;22.98;;;7.90;99.90;;;;;;2603517;54;20026;31
2023/02/15 14:35:04;;;;;;;34.20;22.55;;;7.90;99.90;;;;;;2603720;54;20026;31
2023/02/15 14:37:42;;;;;;;38.17;23.50;;;7.90;99.90;;;;;;2603540;54;25110;31
2023/02/15 14:43:10;;;;;;;37.45;20.45;;;7.90;99.90;;;;;;2603784;54;19934;31
2023/02/15 14:45:58;;;;;;;36.87;23.10;;;7.90;99.90;;;;;;2603571;54;20018;31
2023/02/15 14:48:39;;;;;;;35.40;22.30;;;7.90;99.90;;;;;;2603623;54;20026;31
2023/02/15 14:51:14;;;;;;;35.83;22.95;;;7.90;99.90;;;;;;2621889;46;20108;31
2023/02/15 14:53:48;;;;;;;35.97;22.10;;;7.90;99.90;;;;;;2603484;54;20030;31
2023/02/15 14:56:28;;;;;;;37.42;22.40;;;7.90;99.90;;;;;;2603574;54;20933;31
2023/02/15 14:59:21;;;;;;;33.78;21.98;;;7.80;99.90;;;;;;2720876;39;20549;31
2023/02/15 15:04:31;;;;;;;32.90;21.35;;;7.80;99.90;;;;;;2603547;54;20819;31
2023/02/15 15:07:11;;;;;;;33.53;22.67;;;7.80;99.90;;;;;;2603578;54;20089;31
2023/02/15 15:09:45;;;;;;;33.92;22.38;;;7.80;99.90;;;;;;2622264;46;20031;31
2023/02/15 15:12:40;;;;;;;36.75;22.60;;;7.70;99.90;;;;;;2622077;46;20027;31
2023/02/15 15:15:17;;;;;;;37.17;22.50;;;7.70;99.90;;;;;;2603758;54;20055;31
2023/02/15 15:17:59;;;;;;;39.00;22.93;;;7.70;99.90;;;;;;2621967;46;20030;31
2023/02/15 15:21:05;;;;;;;35.75;22.52;;;7.70;99.90;;;;;;2603351;54;20583;31
2023/02/15 15:23:48;;;;;;;37.60;22.35;;;7.70;99.90;;;;;;2622187;46;20794;31
2023/02/15 15:26:33;;;;;;;38.15;23.15;;;7.60;99.90;;;;;;2621699;46;20255;31
2023/02/15 15:29:06;;;;;;;37.17;23.33;;;7.60;99.90;;;;;;2603328;54;20037;31
2023/02/15 15:31:44;;;;;;;33.97;22.52;;;7.50;99.90;;;;;;2603407;54;20886;31
2023/02/15 15:35:00;;;;;;;36.33;22.30;;;7.60;99.90;;;;;;2702066;39;21564;31
2023/02/15 15:37:57;;;;;;;35.35;22.20;;;7.50;99.90;;;;;;2621652;46;20058;31
2023/02/15 15:40:44;;;;;;;39.42;24.17;;;7.40;99.90;;;;;;2621845;46;20074;31
2023/02/15 15:43:57;;;;;;;36.83;22.38;;;7.40;99.90;;;;;;2603459;54;20568;31
2023/02/15 15:46:53;;;;;;;41.88;24.30;;;7.40;99.90;;;;;;2603646;54;20853;31
2023/02/15 15:49:30;;;;;;;37.20;22.83;;;7.30;99.90;;;;;;2603015;54;20910;31
2023/02/15 15:52:05;;;;;;;39.67;25.03;;;7.20;99.90;;;;;;2603535;54;20134;31
2023/02/15 15:54:42;;;;;;;60.70;31.50;;;7.20;99.90;;;;;;2603568;54;20757;31
2023/02/15 15:57:18;;;;;;;54.30;27.40;;;7.10;99.90;;;;;;2603568;54;21200;31
2023/02/15 15:59:53;;;;;;;53.97;29.33;;;7.10;99.90;;;;;;2603554;54;20030;31
2023/02/15 16:02:27;;;;;;;48.40;25.80;;;7.10;99.90;;;;;;2621843;46;20026;31
2023/02/15 16:05:09;;;;;;;41.25;25.35;;;7.00;99.90;;;;;;2603498;54;20033;31
2023/02/15 16:07:44;;;;;;;38.33;23.70;;;7.00;99.90;;;;;;2603540;54;20599;31
2023/02/15 16:10:26;;;;;;;39.50;23.90;;;6.90;99.90;;;;;;2720350;39;21436;31
2023/02/15 16:13:00;;;;;;;42.78;26.80;;;6.90;99.90;;;;;;2621691;46;20034;31
2023/02/15 16:15:38;;;;;;;49.40;25.73;;;6.80;99.90;;;;;;2603199;54;20049;31
2023/02/15 16:18:14;;;;;;;40.88;24.58;;;6.80;99.90;;;;;;2603213;54;20016;31
2023/02/15 16:20:52;;;;;;;47.75;26.83;;;6.70;99.90;;;;;;2603333;54;20884;31
2023/02/15 16:23:48;;;;;;;48.90;26.20;;;6.70;99.90;;;;;;2603374;54;20042;31
2023/02/15 16:26:35;;;;;;;79.00;63.75;;;6.60;99.90;;;;;;2621853;46;20031;31
2023/02/15 16:29:15;;;;;;;;;;;6.50;99.90;;;;;;2603352;54;20779;31
2023/02/15 16:32:01;;;;;;;58.50;36.28;;;6.50;99.90;;;;;;2603313;54;19985;31
2023/02/15 16:34:35;;;;;;;55.95;31.25;;;6.40;99.90;;;;;;2621688;46;20026;31
2023/02/15 16:37:17;;;;;;;54.90;33.45;;;6.40;99.90;;;;;;2603432;54;20059;31
2023/02/15 16:39:50;;;;;;;70.03;38.17;;;6.30;99.90;;;;;;2603112;54;19954;31
2023/02/15 16:42:29;;;;;;;78.27;36.90;;;6.30;99.90;;;;;;2602967;54;20028;31
2023/02/15 16:45:05;;;;;;;71.60;32.55;;;6.20;99.90;;;;;;2603070;54;21190;31
2023/02/15 16:47:42;;;;;;;70.68;34.20;;;6.20;99.90;;;;;;2602282;54;20034;31
2023/02/15 16:50:20;;;;;;;69.85;33.63;;;6.10;99.90;;;;;;2701483;39;20462;31
2023/02/15 16:52:54;;;;;;;76.30;35.10;;;6.10;99.90;;;;;;2614960;46;20114;31
2023/02/15 16:58:04;;;;;;;50.80;28.50;;;6.00;99.90;;;;;;2603127;54;20818;31
2023/02/15 17:00:40;;;;;;;49.38;27.05;;;5.90;99.90;;;;;;2603096;54;20026;31
2023/02/15 17:03:23;;;;;;;57.03;29.90;;;5.90;99.90;;;;;;2608451;47;20031;31
2023/02/15 17:05:58;;;;;;;61.63;30.05;;;5.80;99.90;;;;;;2603273;54;20088;31
2023/02/15 17:08:33;;;;;;;62.93;34.07;;;5.80;99.90;;;;;;2603138;54;20031;31
2023/02/15 17:11:16;;;;;;;63.97;38.43;;;5.80;99.90;;;;;;2617899;47;20034;31
2023/02/15 17:14:24;;;;;;;55.85;30.25;;;5.70;99.90;;;;;;2621201;47;20883;31
2023/02/15 17:17:01;;;;;;;;;;;5.70;99.90;;;;;;2622076;47;20181;31
2023/02/15 17:19:43;;;;;;;65.95;34.65;;;5.60;99.90;;;;;;2603169;54;20003;31
2023/02/15 17:22:20;;;;;;;66.25;35.38;;;5.60;99.90;;;;;;2621527;47;20027;31
2023/02/15 17:25:00;;;;;;;52.85;29.75;;;5.50;99.90;;;;;;2603664;54;20031;31
2023/02/15 17:27:34;;;;;;;54.90;29.05;;;5.50;99.90;;;;;;2603905;54;20030;31
2023/02/15 17:30:16;;;;;;;59.50;32.75;;;5.40;99.90;;;;;;2622219;46;20023;31
2023/02/15 17:32:55;;;;;;;43.25;26.40;;;5.30;99.90;;;;;;2603938;54;20108;31
2023/02/15 17:35:30;;;;;;;55.30;30.90;;;5.20;99.90;;;;;;2622123;46;20852;31
2023/02/15 17:38:07;;;;;;;51.80;28.55;;;5.20;99.90;;;;;;2622207;46;20052;31
2023/02/15 17:40:41;;;;;;;49.83;26.45;;;5.10;99.90;;;;;;2622238;46;20023;31
2023/02/15 17:43:18;;;;;;;49.90;27.95;;;5.00;99.90;;;;;;2622217;46;20031;31
2023/02/15 17:45:55;;;;;;;43.78;25.13;;;4.90;99.90;;;;;;2621702;46;20022;31